createdAt,value
2017-10-11T00:00:51.136Z,3.63
2017-10-11T00:03:17.754Z,3.80
2017-10-11T00:05:44.122Z,5.43
2017-10-11T00:08:11.250Z,4.20
2017-10-11T00:10:37.605Z,5.53
2017-10-11T00:13:04.687Z,4.30
2017-10-11T00:15:31.055Z,4.00
2017-10-11T00:17:57.398Z,3.90
2017-10-11T00:20:23.807Z,3.77
2017-10-11T00:22:50.176Z,9.23
2017-10-11T00:25:16.529Z,4.23
2017-10-11T00:27:42.877Z,3.43
2017-10-11T00:30:09.224Z,7.10
2017-10-11T00:32:35.586Z,5.43
2017-10-11T00:35:02.773Z,7.20
2017-10-11T00:37:29.127Z,7.20
2017-10-11T00:39:55.879Z,4.03
2017-10-11T00:42:22.322Z,4.70
2017-10-11T00:44:49.442Z,7.30
2017-10-11T00:47:15.836Z,4.30
2017-10-11T00:49:42.220Z,6.00
2017-10-11T00:52:09.606Z,4.90
2017-10-11T00:54:35.943Z,6.17
2017-10-11T00:57:02.841Z,8.63
2017-10-11T00:59:29.242Z,4.27
2017-10-11T01:01:55.637Z,6.80
2017-10-11T01:04:22.039Z,7.97
2017-10-11T01:06:48.395Z,4.70
2017-10-11T01:09:15.499Z,6.07
2017-10-11T01:11:41.823Z,6.40
2017-10-11T01:14:08.155Z,6.30
2017-10-11T01:16:34.521Z,5.60
2017-10-11T01:19:01.628Z,4.73
2017-10-11T01:21:28.458Z,4.17
2017-10-11T01:23:54.845Z,19.80
2017-10-11T01:26:21.308Z,4.20
2017-10-11T01:28:47.669Z,4.63
2017-10-11T01:31:14.079Z,5.70
2017-10-11T01:33:40.478Z,11.33
2017-10-11T01:36:06.818Z,8.80
2017-10-11T01:38:33.187Z,6.20
2017-10-11T01:40:59.567Z,5.27
2017-10-11T01:43:25.924Z,8.90
2017-10-11T01:45:52.339Z,7.10
2017-10-11T01:48:18.745Z,6.53
2017-10-11T01:50:45.136Z,10.50
2017-10-11T01:53:11.511Z,6.33
2017-10-11T01:55:37.880Z,3.57
2017-10-11T01:58:05.269Z,5.40
2017-10-11T02:00:31.662Z,6.10
2017-10-11T02:02:58.037Z,8.20
2017-10-11T02:05:25.201Z,7.73
2017-10-11T02:07:52.293Z,5.77
2017-10-11T02:10:18.681Z,4.37
2017-10-11T02:12:45.021Z,4.70
2017-10-11T02:15:11.485Z,10.40
2017-10-11T02:17:37.851Z,6.97
2017-10-11T02:20:04.964Z,4.87
2017-10-11T02:22:31.338Z,6.70
2017-10-11T02:24:58.458Z,5.93
2017-10-11T02:27:24.845Z,7.83
2017-10-11T02:29:51.193Z,7.93
2017-10-11T02:32:17.603Z,8.57
2017-10-11T02:34:43.929Z,5.60
2017-10-11T02:37:10.360Z,5.80
2017-10-11T02:39:36.699Z,11.30
2017-10-11T02:42:03.380Z,6.37
2017-10-11T02:44:30.451Z,11.70
2017-10-11T02:46:57.592Z,4.73
2017-10-11T02:49:24.706Z,4.80
2017-10-11T02:51:51.038Z,12.23
2017-10-11T02:54:17.561Z,6.30
2017-10-11T02:56:43.891Z,5.70
2017-10-11T02:59:10.539Z,4.30
2017-10-11T03:01:36.929Z,7.60
2017-10-11T03:04:03.267Z,9.77
2017-10-11T03:06:29.656Z,5.10
2017-10-11T03:08:56.797Z,8.40
2017-10-11T03:11:23.923Z,4.50
2017-10-11T03:13:50.301Z,6.10
2017-10-11T03:16:16.640Z,16.67
2017-10-11T03:18:43.010Z,10.93
2017-10-11T03:21:09.348Z,13.87
2017-10-11T03:23:35.732Z,9.10
2017-10-11T03:26:02.845Z,6.10
2017-10-11T03:28:29.172Z,10.30
2017-10-11T03:30:57.101Z,10.07
2017-10-11T03:33:23.517Z,9.20
2017-10-11T03:35:49.886Z,6.53
2017-10-11T03:38:16.254Z,7.50
2017-10-11T03:40:42.634Z,6.60
2017-10-11T03:43:09.275Z,7.73
2017-10-11T03:45:35.609Z,12.20
2017-10-11T03:48:01.949Z,7.80
2017-10-11T03:50:29.067Z,13.70
2017-10-11T03:52:55.428Z,10.57
2017-10-11T03:55:22.556Z,11.97
2017-10-11T03:57:48.924Z,10.63
2017-10-11T04:00:15.291Z,13.00
2017-10-11T04:02:41.683Z,13.93
2017-10-11T04:05:08.307Z,14.30
2017-10-11T04:07:35.386Z,11.83
2017-10-11T04:10:01.810Z,12.83
2017-10-11T04:12:28.190Z,11.87
2017-10-11T04:14:54.572Z,7.97
2017-10-11T04:17:20.960Z,10.10
2017-10-11T04:19:48.069Z,5.30
2017-10-11T04:22:14.442Z,10.17
2017-10-11T04:24:40.859Z,5.53
2017-10-11T04:27:07.290Z,4.07
2017-10-11T04:29:34.593Z,5.90
2017-10-11T04:32:00.953Z,7.50
2017-10-11T04:34:27.355Z,3.63
2017-10-11T04:36:53.807Z,10.40
2017-10-11T04:39:20.234Z,5.00
2017-10-11T04:41:46.640Z,7.70
2017-10-11T04:44:13.067Z,4.47
2017-10-11T04:46:39.430Z,15.80
2017-10-11T04:49:05.867Z,4.90
2017-10-11T04:51:32.303Z,7.10
2017-10-11T04:53:58.867Z,5.80
2017-10-11T04:56:25.261Z,9.90
2017-10-11T04:58:51.686Z,10.73
2017-10-11T05:01:18.075Z,11.10
2017-10-11T05:03:44.429Z,6.20
2017-10-11T05:06:10.805Z,9.80
2017-10-11T05:08:37.167Z,7.90
2017-10-11T05:11:04.275Z,11.50
2017-10-11T05:13:30.644Z,7.57
2017-10-11T05:15:58.081Z,13.83
2017-10-11T05:18:24.538Z,9.70
2017-10-11T05:20:50.938Z,10.00
2017-10-11T05:23:18.111Z,7.73
2017-10-11T05:25:44.530Z,8.90
2017-10-11T05:28:10.973Z,11.87
2017-10-11T05:30:37.349Z,7.93
2017-10-11T05:33:03.788Z,10.80
2017-10-11T05:35:30.206Z,10.40
2017-10-11T05:37:56.869Z,12.00
2017-10-11T05:40:23.196Z,19.33
2017-10-11T05:42:50.316Z,15.03
2017-10-11T05:45:16.689Z,21.43
2017-10-11T05:47:43.767Z,14.83
2017-10-11T05:50:10.137Z,17.93
2017-10-11T05:52:36.623Z,15.83
2017-10-11T05:55:03.030Z,15.73
2017-10-11T05:57:30.146Z,16.43
2017-10-11T05:59:56.512Z,14.40
2017-10-11T06:02:22.905Z,18.37
2017-10-11T06:04:49.256Z,12.10
2017-10-11T06:07:15.684Z,21.73
2017-10-11T06:09:42.081Z,14.50
2017-10-11T06:12:08.427Z,13.60
2017-10-11T06:14:34.792Z,17.63
2017-10-11T06:17:01.145Z,20.00
2017-10-11T06:19:27.529Z,16.53
2017-10-11T06:21:53.856Z,11.60
2017-10-11T06:24:20.273Z,18.30
2017-10-11T06:26:46.745Z,8.80
2017-10-11T06:29:13.107Z,10.30
2017-10-11T06:31:39.488Z,9.47
2017-10-11T06:34:05.830Z,9.07
2017-10-11T06:36:32.224Z,16.60
2017-10-11T06:38:58.590Z,14.03
2017-10-11T06:41:25.706Z,9.33
2017-10-11T06:43:52.071Z,7.87
2017-10-11T06:46:19.174Z,7.00
2017-10-11T06:48:45.576Z,11.10
2017-10-11T06:51:11.906Z,8.83
2017-10-11T06:53:38.435Z,7.40
2017-10-11T06:56:04.817Z,8.20
2017-10-11T06:58:31.212Z,6.50
2017-10-11T07:00:57.583Z,6.03
2017-10-11T07:03:24.312Z,12.17
2017-10-11T07:05:50.688Z,5.63
2017-10-11T07:08:17.104Z,6.57
2017-10-11T07:10:44.250Z,10.37
2017-10-11T07:13:11.328Z,11.50
2017-10-11T07:15:37.678Z,8.30
2017-10-11T07:18:04.022Z,7.63
2017-10-11T07:20:30.356Z,5.63
2017-10-11T07:22:56.708Z,8.33
2017-10-11T07:25:23.851Z,5.47
2017-10-11T07:27:50.954Z,4.47
2017-10-11T07:30:17.304Z,9.87
2017-10-11T07:32:43.626Z,5.37
2017-10-11T07:35:09.941Z,8.13
2017-10-11T07:37:36.291Z,7.03
2017-10-11T07:40:02.683Z,5.53
2017-10-11T07:42:29.050Z,10.00
2017-10-11T07:44:55.410Z,6.80
2017-10-11T07:47:22.535Z,5.37
2017-10-11T07:49:49.665Z,3.60
2017-10-11T07:52:16.341Z,6.10
2017-10-11T07:54:42.726Z,3.77
2017-10-11T07:57:09.137Z,6.70
2017-10-11T07:59:35.475Z,20.87
2017-10-11T08:02:01.847Z,5.53
2017-10-11T08:04:28.217Z,8.83
2017-10-11T08:06:54.595Z,12.43
2017-10-11T08:09:21.024Z,4.50
2017-10-11T08:11:47.353Z,6.30
2017-10-11T08:14:14.023Z,3.60
2017-10-11T08:16:41.177Z,6.30
2017-10-11T08:19:08.305Z,11.20
2017-10-11T08:21:35.459Z,7.00
2017-10-11T08:24:01.806Z,3.77
2017-10-11T08:26:28.250Z,10.10
2017-10-11T08:28:54.583Z,4.47
2017-10-11T08:31:21.695Z,7.30
2017-10-11T08:33:48.047Z,6.63
2017-10-11T08:36:14.397Z,30.53
2017-10-11T08:38:40.770Z,4.00
2017-10-11T08:41:07.388Z,4.33
2017-10-11T08:43:33.756Z,3.90
2017-10-11T08:46:00.838Z,5.83
2017-10-11T08:48:27.176Z,13.80
2017-10-11T08:50:53.514Z,4.33
2017-10-11T08:53:19.939Z,4.03
2017-10-11T08:55:46.299Z,11.37
2017-10-11T08:58:12.654Z,6.17
2017-10-11T09:00:39.726Z,3.63
2017-10-11T09:03:06.071Z,4.37
2017-10-11T09:05:32.445Z,2.20
2017-10-11T09:07:59.535Z,1.97
2017-10-11T09:10:25.941Z,1.87
2017-10-11T09:12:53.045Z,2.07
2017-10-11T09:15:19.399Z,4.60
2017-10-11T09:17:45.782Z,4.60
2017-10-11T09:20:12.457Z,6.53
2017-10-11T09:22:38.804Z,1.97
2017-10-11T09:25:05.944Z,4.50
2017-10-11T09:27:32.307Z,6.57
2017-10-11T09:29:58.650Z,1.47
2017-10-11T09:32:25.066Z,16.80
2017-10-11T09:34:51.365Z,4.03
2017-10-11T09:37:18.522Z,1.93
2017-10-11T09:39:45.637Z,2.67
2017-10-11T09:42:12.004Z,2.50
2017-10-11T09:44:38.356Z,4.73
2017-10-11T09:47:04.701Z,4.47
2017-10-11T09:49:31.057Z,5.50
2017-10-11T09:51:57.407Z,5.40
2017-10-11T09:54:24.604Z,1.47
2017-10-11T09:56:50.990Z,5.13
2017-10-11T09:59:18.063Z,2.13
2017-10-11T10:01:44.385Z,2.37
2017-10-11T10:04:11.012Z,4.03
2017-10-11T10:06:38.093Z,2.50
2017-10-11T10:09:04.471Z,2.30
2017-10-11T10:11:31.595Z,2.57
2017-10-11T10:14:01.712Z,2.17
2017-10-11T10:16:28.179Z,2.37
2017-10-11T10:18:54.637Z,3.43
2017-10-11T10:21:21.006Z,2.70
2017-10-11T10:23:47.353Z,3.50
2017-10-11T10:26:13.736Z,2.03
2017-10-11T10:28:40.077Z,2.17
2017-10-11T10:31:06.395Z,2.30
2017-10-11T10:33:32.767Z,4.30
2017-10-11T10:35:59.085Z,3.93
2017-10-11T10:38:25.446Z,2.23
2017-10-11T10:40:52.518Z,5.13
2017-10-11T10:43:18.882Z,3.50
2017-10-11T10:45:45.217Z,2.17
2017-10-11T10:48:11.587Z,1.90
2017-10-11T10:50:37.922Z,3.90
2017-10-11T10:53:04.382Z,3.30
2017-10-11T10:55:30.782Z,1.97
2017-10-11T10:57:57.139Z,1.97
2017-10-11T11:00:23.469Z,4.43
2017-10-11T11:02:49.815Z,6.03
2017-10-11T11:05:16.182Z,4.00
2017-10-11T11:07:43.283Z,1.93
2017-10-11T11:10:09.666Z,1.77
2017-10-11T11:12:36.797Z,2.83
2017-10-11T11:15:03.175Z,1.97
2017-10-11T11:17:29.566Z,13.90
2017-10-11T11:19:56.678Z,2.17
2017-10-11T11:22:23.053Z,1.20
2017-10-11T11:24:50.175Z,4.23
2017-10-11T11:27:16.557Z,1.60
2017-10-11T11:29:42.957Z,3.00
2017-10-11T11:32:10.387Z,1.10
2017-10-11T11:34:36.762Z,0.93
2017-10-11T11:37:03.168Z,7.83
2017-10-11T11:39:30.273Z,2.50
2017-10-11T11:41:56.636Z,2.13
2017-10-11T11:44:23.002Z,1.97
2017-10-11T11:46:49.366Z,1.53
2017-10-11T11:49:15.749Z,1.50
2017-10-11T11:51:42.100Z,15.53
2017-10-11T11:54:08.569Z,2.00
2017-10-11T11:56:34.911Z,1.63
2017-10-11T11:59:01.286Z,6.57
2017-10-11T12:01:27.692Z,1.60
2017-10-11T12:03:54.059Z,4.20
2017-10-11T12:06:20.484Z,3.20
2017-10-11T12:08:46.861Z,1.33
2017-10-11T12:11:13.246Z,3.07
2017-10-11T12:13:39.621Z,2.70
2017-10-11T12:16:05.955Z,1.40
2017-10-11T12:18:33.058Z,1.97
2017-10-11T12:20:59.669Z,4.57
2017-10-11T12:23:26.004Z,1.30
2017-10-11T12:25:52.403Z,2.00
2017-10-11T12:28:19.540Z,2.47
2017-10-11T12:30:46.646Z,3.07
2017-10-11T12:33:14.108Z,1.87
2017-10-11T12:35:40.841Z,3.33
2017-10-11T12:38:07.200Z,2.00
2017-10-11T12:40:34.340Z,2.10
2017-10-11T12:43:00.704Z,1.83
2017-10-11T12:45:27.834Z,3.40
2017-10-11T12:47:54.459Z,3.97
2017-10-11T12:50:20.835Z,2.70
2017-10-11T12:52:47.241Z,3.30
2017-10-11T12:55:14.323Z,1.77
2017-10-11T12:57:40.756Z,2.40
2017-10-11T13:00:07.173Z,1.37
2017-10-11T13:02:33.668Z,1.23
2017-10-11T13:05:00.021Z,1.20
2017-10-11T13:07:27.103Z,1.90
2017-10-11T13:09:53.491Z,1.73
2017-10-11T13:12:20.591Z,1.43
2017-10-11T13:14:46.923Z,5.53
2017-10-11T13:17:13.347Z,1.70
2017-10-11T13:19:40.082Z,1.80
2017-10-11T13:22:07.148Z,3.33
2017-10-11T13:24:33.501Z,2.20
2017-10-11T13:26:59.930Z,2.03
2017-10-11T13:29:26.324Z,1.50
2017-10-11T13:31:52.988Z,2.57
2017-10-11T13:34:19.344Z,1.77
2017-10-11T13:36:46.441Z,1.23
2017-10-11T13:39:12.872Z,1.73
2017-10-11T13:41:39.219Z,1.67
2017-10-11T13:44:05.594Z,1.90
2017-10-11T13:46:31.949Z,1.87
2017-10-11T13:48:58.347Z,2.57
2017-10-11T13:51:24.704Z,2.33
2017-10-11T13:53:51.070Z,4.30
2017-10-11T13:56:17.459Z,8.33
2017-10-11T13:58:43.799Z,2.57
2017-10-11T14:01:10.230Z,2.60
2017-10-11T14:03:36.584Z,2.80
2017-10-11T14:06:02.974Z,2.10
2017-10-11T14:08:29.303Z,2.17
2017-10-11T14:10:55.650Z,2.10
2017-10-11T14:13:22.063Z,11.77
2017-10-11T14:15:48.755Z,1.60
2017-10-11T14:18:15.866Z,2.00
2017-10-11T14:20:42.221Z,1.50
2017-10-11T14:23:08.605Z,3.73
2017-10-11T14:25:34.981Z,1.50
2017-10-11T14:28:01.422Z,2.93
2017-10-11T14:30:27.800Z,1.53
2017-10-11T14:32:54.192Z,3.43
2017-10-11T14:35:20.552Z,1.80
2017-10-11T14:37:48.810Z,2.83
2017-10-11T14:40:15.963Z,5.90
2017-10-11T14:42:43.087Z,3.20
2017-10-11T14:45:09.439Z,1.60
2017-10-11T14:47:35.781Z,4.60
2017-10-11T14:50:02.150Z,8.50
2017-10-11T14:52:28.496Z,1.83
2017-10-11T14:54:54.873Z,2.53
2017-10-11T14:57:21.235Z,1.97
2017-10-11T14:59:47.631Z,5.27
2017-10-11T15:02:13.993Z,3.47
2017-10-11T15:04:40.361Z,1.67
2017-10-11T15:07:06.760Z,2.53
2017-10-11T15:09:33.130Z,2.10
2017-10-11T15:12:00.247Z,1.87
2017-10-11T15:14:26.657Z,4.70
2017-10-11T15:16:53.040Z,3.53
2017-10-11T15:19:20.142Z,8.57
2017-10-11T15:21:46.897Z,1.63
2017-10-11T15:24:13.268Z,2.63
2017-10-11T15:26:39.643Z,2.67
2017-10-11T15:29:06.054Z,2.77
2017-10-11T15:31:32.406Z,3.90
2017-10-11T15:33:58.823Z,2.60
2017-10-11T15:36:25.156Z,2.80
2017-10-11T15:38:51.663Z,4.80
2017-10-11T15:41:18.758Z,8.37
2017-10-11T15:43:45.134Z,5.67
2017-10-11T15:46:11.462Z,4.20
2017-10-11T15:48:37.835Z,7.17
2017-10-11T15:51:04.194Z,6.53
2017-10-11T15:53:31.287Z,10.63
2017-10-11T15:55:57.682Z,9.80
2017-10-11T15:58:24.014Z,11.47
2017-10-11T16:00:50.415Z,20.33
2017-10-11T16:03:17.535Z,13.33
2017-10-11T16:05:43.864Z,17.60
2017-10-11T16:08:10.215Z,12.53
2017-10-11T16:10:36.950Z,6.63
2017-10-11T16:13:03.328Z,5.80
2017-10-11T16:15:29.656Z,6.33
2017-10-11T16:17:56.021Z,4.40
2017-10-11T16:20:22.620Z,4.93
2017-10-11T16:22:49.015Z,4.20
2017-10-11T16:25:15.369Z,5.40
2017-10-11T16:27:42.499Z,3.90
2017-10-11T16:30:09.616Z,3.77
2017-10-11T16:32:35.955Z,3.40
2017-10-11T16:35:02.324Z,2.53
2017-10-11T16:37:28.748Z,1.87
2017-10-11T16:39:55.923Z,3.10
2017-10-11T16:42:22.572Z,2.07
2017-10-11T16:44:48.982Z,3.90
2017-10-11T16:47:15.305Z,2.40
2017-10-11T16:49:42.009Z,6.30
2017-10-11T16:52:08.376Z,8.23
2017-10-11T16:54:34.731Z,7.90
2017-10-11T16:57:01.081Z,3.00
2017-10-11T16:59:27.438Z,2.83
2017-10-11T17:01:54.549Z,6.50
2017-10-11T17:04:20.937Z,2.80
2017-10-11T17:06:47.326Z,11.40
2017-10-11T17:09:13.701Z,6.50
2017-10-11T17:11:40.136Z,6.20
2017-10-11T17:14:07.283Z,17.47
2017-10-11T17:16:33.684Z,7.70
2017-10-11T17:19:00.782Z,8.90
2017-10-11T17:21:27.209Z,6.73
2017-10-11T17:23:54.306Z,13.07
2017-10-11T17:26:20.729Z,16.83
2017-10-11T17:28:47.089Z,10.50
2017-10-11T17:31:13.490Z,6.07
2017-10-11T17:33:39.809Z,8.13
2017-10-11T17:36:06.255Z,14.03
2017-10-11T17:38:32.785Z,15.70
2017-10-11T17:40:59.199Z,13.13
2017-10-11T17:43:25.609Z,14.07
2017-10-11T17:45:52.050Z,11.43
2017-10-11T17:48:18.457Z,6.30
2017-10-11T17:50:44.904Z,13.93
2017-10-11T17:53:11.269Z,10.60
2017-10-11T17:55:37.657Z,8.67
2017-10-11T17:58:04.057Z,11.17
2017-10-11T18:00:30.463Z,14.03
2017-10-11T18:02:57.929Z,9.13
2017-10-11T18:05:25.069Z,7.80
2017-10-11T18:07:52.181Z,12.23
2017-10-11T18:10:18.534Z,10.00
2017-10-11T18:12:51.935Z,13.60
2017-10-11T18:15:18.357Z,9.70
2017-10-11T18:17:44.840Z,10.43
2017-10-11T18:20:11.283Z,9.10
2017-10-11T18:22:37.714Z,11.20
2017-10-11T18:25:04.155Z,14.63
2017-10-11T18:27:30.669Z,11.50
2017-10-11T18:29:59.244Z,15.63
2017-10-11T18:32:25.659Z,19.63
2017-10-11T18:34:52.135Z,17.07
2017-10-11T18:37:18.576Z,12.80
2017-10-11T18:39:45.020Z,26.83
2017-10-11T18:42:11.478Z,15.33
2017-10-11T18:44:38.653Z,18.90
2017-10-11T18:47:05.149Z,27.13
2017-10-11T18:49:31.634Z,18.73
2017-10-11T18:51:58.063Z,20.93
2017-10-11T18:54:24.551Z,16.13
2017-10-11T18:56:51.009Z,22.67
2017-10-11T18:59:17.464Z,19.40
2017-10-11T19:01:50.965Z,13.73
2017-10-11T19:04:17.454Z,17.10
2017-10-11T19:06:44.631Z,16.90
2017-10-11T19:09:11.068Z,15.67
2017-10-11T19:11:37.578Z,34.30
2017-10-11T19:14:04.005Z,24.47
2017-10-11T19:16:30.446Z,20.70
2017-10-11T19:18:56.873Z,24.63
2017-10-11T19:21:23.285Z,25.37
2017-10-11T19:23:50.547Z,21.33
2017-10-11T19:26:17.012Z,17.70
2017-10-11T19:28:43.492Z,21.67
2017-10-11T19:31:10.653Z,20.67
2017-10-11T19:33:37.814Z,24.43
2017-10-11T19:36:04.278Z,19.13
2017-10-11T19:38:31.071Z,19.20
2017-10-11T19:40:58.285Z,19.17
2017-10-11T19:43:24.744Z,25.87
2017-10-11T19:45:51.953Z,13.23
2017-10-11T19:48:18.735Z,23.10
2017-10-11T19:50:46.458Z,22.00
2017-10-11T19:53:12.832Z,16.13
2017-10-11T19:55:39.254Z,18.20
2017-10-11T19:58:06.420Z,14.37
2017-10-11T20:00:46.587Z,19.83
2017-10-11T20:03:13.031Z,31.23
2017-10-11T20:05:39.463Z,16.43
2017-10-11T20:08:05.885Z,13.30
2017-10-11T20:10:33.318Z,15.03
2017-10-11T20:12:59.688Z,21.43
2017-10-11T20:15:26.119Z,23.57
2017-10-11T20:17:52.579Z,19.33
2017-10-11T20:20:18.962Z,17.67
2017-10-11T20:22:45.341Z,14.73
2017-10-11T20:25:11.727Z,15.63
2017-10-11T20:27:38.910Z,17.12
2017-10-11T20:30:05.333Z,13.93
2017-10-11T20:32:31.701Z,12.70
2017-10-11T20:34:58.818Z,14.80
2017-10-11T20:37:25.225Z,26.37
2017-10-11T20:39:51.656Z,27.60
2017-10-11T20:42:18.050Z,23.13
2017-10-11T20:44:44.434Z,15.68
2017-10-11T20:47:10.779Z,18.62
2017-10-11T20:49:37.196Z,15.50
2017-10-11T20:52:03.568Z,13.17
2017-10-11T20:54:30.693Z,16.45
2017-10-11T20:56:57.038Z,13.43
2017-10-11T20:59:24.179Z,22.17
2017-10-11T21:01:51.221Z,16.02
2017-10-11T21:04:17.566Z,22.00
2017-10-11T21:06:43.957Z,19.87
2017-10-11T21:09:10.325Z,16.27
2017-10-11T21:11:37.432Z,16.10
2017-10-11T21:14:03.816Z,14.63
2017-10-11T21:16:30.154Z,12.82
2017-10-11T21:18:56.505Z,14.60
2017-10-11T21:21:22.883Z,12.57
2017-10-11T21:23:49.980Z,16.70
2017-10-11T21:26:16.351Z,24.20
2017-10-11T21:28:42.735Z,12.40
2017-10-11T21:31:09.092Z,17.77
2017-10-11T21:33:35.489Z,10.85
2017-10-11T21:36:01.862Z,13.40
2017-10-11T21:38:28.306Z,11.70
2017-10-11T21:40:55.415Z,11.20
2017-10-11T21:43:21.769Z,17.70
2017-10-11T21:45:48.154Z,10.77
2017-10-11T21:48:21.484Z,19.45
2017-10-11T21:50:48.902Z,13.95
2017-10-11T21:53:15.266Z,20.67
2017-10-11T21:55:41.646Z,11.15
2017-10-11T21:58:08.010Z,13.48
2017-10-11T22:00:34.353Z,13.15
2017-10-11T22:03:00.750Z,12.37
2017-10-11T22:05:27.123Z,12.63
2017-10-11T22:07:53.491Z,23.33
2017-10-11T22:10:19.824Z,13.45
2017-10-11T22:12:46.196Z,11.12
2017-10-11T22:15:12.512Z,19.92
2017-10-11T22:17:38.766Z,11.77
2017-10-11T22:20:05.131Z,12.00
2017-10-11T22:22:31.486Z,12.82
2017-10-11T22:24:57.883Z,13.90
2017-10-11T22:27:25.005Z,12.63
2017-10-11T22:29:52.137Z,12.15
2017-10-11T22:32:18.433Z,11.70
2017-10-11T22:34:44.776Z,14.35
2017-10-11T22:37:11.153Z,26.42
2017-10-11T22:39:37.638Z,22.10
2017-10-11T22:42:03.966Z,9.25
2017-10-11T22:44:31.093Z,10.40
2017-10-11T22:46:57.455Z,16.12
2017-10-11T22:49:23.814Z,12.45
2017-10-11T22:51:50.901Z,11.95
2017-10-11T22:54:17.206Z,14.82
2017-10-11T22:56:43.540Z,19.30
2017-10-11T22:59:10.628Z,15.13
2017-10-11T23:01:36.932Z,13.55
2017-10-11T23:04:03.269Z,12.20
2017-10-11T23:06:29.573Z,10.32
2017-10-11T23:08:56.629Z,23.05
2017-10-11T23:11:23.629Z,15.30
2017-10-11T23:13:49.932Z,10.68
2017-10-11T23:16:16.247Z,13.62
2017-10-11T23:18:42.577Z,13.85
2017-10-11T23:21:08.868Z,9.75
2017-10-11T23:23:35.126Z,11.15
2017-10-11T23:26:01.484Z,11.10
2017-10-11T23:28:28.562Z,10.00
2017-10-11T23:30:54.856Z,18.67
2017-10-11T23:33:21.218Z,10.25
2017-10-11T23:35:47.508Z,11.15
2017-10-11T23:38:13.792Z,14.82
2017-10-11T23:40:40.844Z,12.95
2017-10-11T23:43:07.868Z,28.85
2017-10-11T23:45:34.155Z,11.95
2017-10-11T23:48:00.468Z,8.90
2017-10-11T23:50:26.774Z,14.98
2017-10-11T23:52:53.152Z,8.35
2017-10-11T23:55:19.423Z,9.93
2017-10-11T23:57:46.466Z,8.18
